createdAt,value
2023-03-27T00:02:11.692Z,1.38
2023-03-27T00:07:13.398Z,1.30
2023-03-27T00:12:15.204Z,1.48
2023-03-27T00:17:16.816Z,1.50
2023-03-27T00:22:18.481Z,1.30
2023-03-27T00:27:20.344Z,1.10
2023-03-27T00:32:21.966Z,1.30
2023-03-27T00:37:23.675Z,1.25
2023-03-27T00:42:25.506Z,1.25
2023-03-27T00:47:33.301Z,1.40
2023-03-27T00:52:37.122Z,1.50
2023-03-27T00:57:39.979Z,1.65
2023-03-27T01:02:44.438Z,1.83
2023-03-27T01:08:01.016Z,1.73
2023-03-27T01:13:38.492Z,1.50
2023-03-27T01:18:54.646Z,1.27
2023-03-27T01:24:33.874Z,1.40
2023-03-27T01:29:53.461Z,1.43
2023-03-27T01:35:24.777Z,1.30
2023-03-27T01:40:46.658Z,1.40
2023-03-27T01:45:55.988Z,1.30
2023-03-27T01:51:08.167Z,1.05
2023-03-27T01:56:18.186Z,1.08
2023-03-27T02:01:26.805Z,1.23
2023-03-27T02:06:35.331Z,1.00
2023-03-27T02:16:51.600Z,0.88
2023-03-27T02:21:53.395Z,0.70
2023-03-27T02:27:12.860Z,0.63
2023-03-27T02:32:37.112Z,0.63
2023-03-27T02:38:06.452Z,0.50
2023-03-27T02:43:17.337Z,0.60
2023-03-27T02:48:43.906Z,0.60
2023-03-27T02:53:51.310Z,0.80
2023-03-27T02:59:04.589Z,0.82
2023-03-27T03:04:41.873Z,0.80
2023-03-27T03:09:56.344Z,0.90
2023-03-27T03:14:58.142Z,1.00
2023-03-27T03:19:59.777Z,1.10
2023-03-27T03:25:02.185Z,1.38
2023-03-27T03:30:04.934Z,1.33
2023-03-27T03:35:13.805Z,1.63
2023-03-27T03:40:16.580Z,1.35
2023-03-27T03:45:21.690Z,1.30
2023-03-27T03:50:23.439Z,1.55
2023-03-27T03:55:25.725Z,1.50
2023-03-27T04:00:28.426Z,1.63
2023-03-27T04:05:32.032Z,1.50
2023-03-27T04:10:35.853Z,1.15
2023-03-27T04:15:40.805Z,1.10
2023-03-27T04:20:54.482Z,6.30
2023-03-27T04:26:00.821Z,1.13
2023-03-27T04:31:18.670Z,1.50
2023-03-27T04:36:58.605Z,1.30
2023-03-27T04:42:02.869Z,1.05
2023-03-27T04:47:08.841Z,1.60
2023-03-27T04:52:14.245Z,1.00
2023-03-27T04:57:19.143Z,0.70
2023-03-27T05:02:23.187Z,0.90
2023-03-27T05:07:33.063Z,0.80
2023-03-27T05:12:36.292Z,0.93
2023-03-27T05:17:42.018Z,0.75
2023-03-27T05:22:45.444Z,0.70
2023-03-27T05:28:13.578Z,1.00
2023-03-27T05:33:17.573Z,0.80
2023-03-27T05:38:20.345Z,0.93
2023-03-27T05:43:36.932Z,0.57
2023-03-27T05:48:39.218Z,0.73
2023-03-27T05:53:42.182Z,1.20
2023-03-27T05:58:54.524Z,1.13
2023-03-27T06:03:56.908Z,0.80
2023-03-27T06:09:25.337Z,1.20
2023-03-27T06:14:50.169Z,1.00
2023-03-27T06:20:12.828Z,0.70
2023-03-27T06:25:16.884Z,0.82
2023-03-27T06:30:21.788Z,0.65
2023-03-27T06:35:43.506Z,0.73
2023-03-27T06:40:59.968Z,1.08
2023-03-27T06:46:19.887Z,0.70
2023-03-27T06:51:41.919Z,1.00
2023-03-27T06:56:45.352Z,1.00
2023-03-27T07:01:55.671Z,0.70
2023-03-27T07:07:09.356Z,1.35
2023-03-27T07:12:15.350Z,0.70
2023-03-27T07:17:20.104Z,0.60
2023-03-27T07:22:27.467Z,0.77
2023-03-27T07:27:31.752Z,0.60
2023-03-27T07:32:38.053Z,0.50
2023-03-27T07:37:42.891Z,0.57
2023-03-27T07:43:14.187Z,0.60
2023-03-27T07:48:19.065Z,0.70
2023-03-27T07:53:34.021Z,1.10
2023-03-27T07:58:56.530Z,0.85
2023-03-27T08:03:59.478Z,0.63
2023-03-27T08:09:05.258Z,0.80
2023-03-27T08:14:09.224Z,0.90
2023-03-27T08:19:12.576Z,0.77
2023-03-27T08:24:18.436Z,0.80
2023-03-27T08:29:37.282Z,0.80
2023-03-27T08:34:40.853Z,0.73
2023-03-27T08:39:42.950Z,0.90
2023-03-27T08:44:45.089Z,1.00
2023-03-27T08:49:54.259Z,0.90
2023-03-27T08:55:38.126Z,1.10
2023-03-27T09:01:41.301Z,1.20
2023-03-27T09:06:48.175Z,1.27
2023-03-27T09:12:14.287Z,1.63
2023-03-27T09:17:49.027Z,2.10
2023-03-27T09:22:57.998Z,2.33
2023-03-27T09:28:29.112Z,5.05
2023-03-27T09:33:41.489Z,1.80
2023-03-27T09:38:50.629Z,0.63
2023-03-27T09:44:13.356Z,0.63
2023-03-27T09:49:20.829Z,0.70
2023-03-27T09:54:31.721Z,0.50
2023-03-27T09:59:38.738Z,1.73
2023-03-27T10:05:02.514Z,0.82
2023-03-27T10:10:21.162Z,0.60
2023-03-27T10:15:42.447Z,0.60
2023-03-27T10:20:57.123Z,0.60
2023-03-27T10:26:04.161Z,0.65
2023-03-27T10:31:36.541Z,0.68
2023-03-27T10:36:54.537Z,0.85
2023-03-27T10:42:09.030Z,1.80
2023-03-27T10:47:22.722Z,1.10
2023-03-27T10:52:40.586Z,1.23
2023-03-27T10:57:54.007Z,2.10
2023-03-27T11:03:21.093Z,2.47
2023-03-27T11:08:46.450Z,2.58
2023-03-27T11:13:52.138Z,2.85
2023-03-27T11:19:13.289Z,3.10
2023-03-27T11:24:55.234Z,3.17
2023-03-27T11:30:14.349Z,3.40
2023-03-27T11:35:39.273Z,3.38
2023-03-27T11:41:01.931Z,2.80
2023-03-27T11:46:21.094Z,2.53
2023-03-27T11:56:31.865Z,2.45
2023-03-27T12:02:27.812Z,2.33
2023-03-27T12:07:38.046Z,2.33
2023-03-27T12:13:12.023Z,2.30
2023-03-27T12:18:27.478Z,3.35
2023-03-27T12:23:50.814Z,2.90
2023-03-27T12:29:23.056Z,3.60
2023-03-27T12:34:50.115Z,3.22
2023-03-27T12:39:59.014Z,3.03
2023-03-27T12:45:18.025Z,2.03
2023-03-27T12:55:32.758Z,1.70
2023-03-27T13:00:34.416Z,1.45
2023-03-27T13:05:45.720Z,1.60
2023-03-27T13:11:18.651Z,1.48
2023-03-27T13:17:02.302Z,1.42
2023-03-27T13:22:20.430Z,1.30
2023-03-27T13:27:47.705Z,1.70
2023-03-27T13:33:14.398Z,1.70
2023-03-27T13:38:36.999Z,1.00
2023-03-27T13:43:39.067Z,1.00
2023-03-27T13:49:06.167Z,1.10
2023-03-27T13:54:34.504Z,1.10
2023-03-27T14:00:10.578Z,1.20
2023-03-27T14:05:49.395Z,1.33
2023-03-27T14:11:09.768Z,1.40
2023-03-27T14:16:50.780Z,2.85
2023-03-27T14:22:00.241Z,2.13
2023-03-27T14:27:10.739Z,1.15
2023-03-27T14:32:17.381Z,1.10
2023-03-27T14:37:31.890Z,0.98
2023-03-27T14:42:38.111Z,1.13
2023-03-27T14:47:43.208Z,1.15
2023-03-27T14:58:00.144Z,0.80
2023-03-27T15:03:13.755Z,1.80
2023-03-27T15:08:19.618Z,1.60
2023-03-27T15:13:45.764Z,0.90
2023-03-27T15:19:17.250Z,0.90
2023-03-27T15:24:30.473Z,0.63
2023-03-27T15:29:40.733Z,1.05
2023-03-27T15:34:46.924Z,1.23
2023-03-27T15:39:59.355Z,0.88
2023-03-27T15:45:03.673Z,1.20
2023-03-27T15:50:17.440Z,1.02
2023-03-27T15:55:39.467Z,1.30
2023-03-27T16:00:49.861Z,1.25
2023-03-27T16:05:57.049Z,1.10
2023-03-27T16:11:00.602Z,1.20
2023-03-27T16:16:05.803Z,1.83
2023-03-27T16:21:13.432Z,1.50
2023-03-27T16:26:27.891Z,1.10
2023-03-27T16:31:29.743Z,1.27
2023-03-27T16:36:32.948Z,1.40
2023-03-27T16:41:34.624Z,1.35
2023-03-27T16:46:36.607Z,1.10
2023-03-27T16:51:38.292Z,1.40
2023-03-27T16:56:40.008Z,1.60
2023-03-27T17:01:42.134Z,1.50
2023-03-27T17:06:44.071Z,1.70
2023-03-27T17:11:45.843Z,1.63
2023-03-27T17:16:48.907Z,1.63
2023-03-27T17:21:50.619Z,1.38
2023-03-27T17:26:52.480Z,1.20
2023-03-27T17:32:00.672Z,1.30
2023-03-27T17:37:02.328Z,1.48
2023-03-27T17:42:04.194Z,1.30
2023-03-27T17:47:07.563Z,1.10
2023-03-27T17:52:11.814Z,1.50
2023-03-27T17:57:13.508Z,1.40
2023-03-27T18:02:20.848Z,1.40
2023-03-27T18:07:29.505Z,1.55
2023-03-27T18:12:34.106Z,1.75
2023-03-27T18:24:47.001Z,1.95
2023-03-27T18:29:48.583Z,1.40
2023-03-27T18:34:51.078Z,1.55
2023-03-27T18:39:52.709Z,1.88
2023-03-27T18:44:54.534Z,1.63
2023-03-27T18:49:57.509Z,2.03
2023-03-27T18:54:59.158Z,2.13
2023-03-27T19:00:01.466Z,1.90
2023-03-27T19:05:04.302Z,2.10
2023-03-27T19:10:06.546Z,2.33
2023-03-27T19:20:41.140Z,2.22
2023-03-27T19:26:19.700Z,1.95
2023-03-27T19:31:21.927Z,2.10
2023-03-27T19:36:27.198Z,2.15
2023-03-27T19:41:28.897Z,2.22
2023-03-27T19:46:30.785Z,1.80
2023-03-27T19:51:32.517Z,2.13
2023-03-27T19:56:35.003Z,1.75
2023-03-27T20:01:37.583Z,1.80
2023-03-27T20:06:39.899Z,2.10
2023-03-27T20:11:44.125Z,2.20
2023-03-27T20:16:46.676Z,1.92
2023-03-27T20:21:48.280Z,1.90
2023-03-27T20:26:54.026Z,1.85
2023-03-27T20:31:58.832Z,2.30
2023-03-27T20:37:05.768Z,1.88
2023-03-27T20:42:28.754Z,1.98
2023-03-27T20:47:39.132Z,2.22
2023-03-27T20:52:41.717Z,1.90
2023-03-27T20:57:43.359Z,2.40
2023-03-27T21:02:45.164Z,1.90
2023-03-27T21:07:52.627Z,1.88
2023-03-27T21:12:56.581Z,1.75
2023-03-27T21:17:58.664Z,1.65
2023-03-27T21:23:01.936Z,1.50
2023-03-27T21:28:04.920Z,1.88
2023-03-27T21:33:07.281Z,1.48
2023-03-27T21:38:09.021Z,1.50
2023-03-27T21:43:13.194Z,1.42
2023-03-27T21:48:15.356Z,1.50
2023-03-27T21:53:17.154Z,1.70
2023-03-27T21:58:18.776Z,2.03
2023-03-27T22:03:20.582Z,1.80
2023-03-27T22:08:22.304Z,1.40
2023-03-27T22:13:24.070Z,1.83
2023-03-27T22:18:25.899Z,1.98
2023-03-27T22:23:27.765Z,1.65
2023-03-27T22:28:29.624Z,2.00
2023-03-27T22:33:32.029Z,1.70
2023-03-27T22:38:33.757Z,1.55
2023-03-27T22:43:35.878Z,1.38
2023-03-27T22:48:37.525Z,1.52
2023-03-27T22:53:40.515Z,1.65
2023-03-27T22:58:42.162Z,1.67
2023-03-27T23:03:44.011Z,1.48
2023-03-27T23:08:47.295Z,1.40
2023-03-27T23:13:49.634Z,1.23
2023-03-27T23:18:51.268Z,1.33
2023-03-27T23:23:53.104Z,1.60
2023-03-27T23:29:02.344Z,1.58
2023-03-27T23:34:04.119Z,1.50
2023-03-27T23:39:05.742Z,1.60
2023-03-27T23:44:07.304Z,1.10
2023-03-27T23:49:08.878Z,1.40
2023-03-27T23:54:10.602Z,1.40
2023-03-27T23:59:12.318Z,1.33
